Time;durP1;ratioP1;P1;durP2;ratioP2;P2;SDS_P1;SDS_P2;PMS_P1;PMS_P2;Temp;Humidity;BMP_temperature;BMP_pressure;BME280_temperature;BME280_humidity;BME280_pressure;Samples;Min_cycle;Max_cycle;Signal;HPM_P1;HPM_P2
2022/07/31 00:01:07;;;;;;;4.25;1.40;;;23.60;61.00;;;;;;5094378;28;20047;-83
2022/07/31 00:03:33;;;;;;;2.53;1.27;;;23.50;60.90;;;;;;5097721;28;20042;-83
2022/07/31 00:05:58;;;;;;;2.13;1.38;;;23.50;61.00;;;;;;5085194;28;20114;-83
2022/07/31 00:08:24;;;;;;;3.33;1.15;;;23.40;60.90;;;;;;5100390;28;20028;-84
2022/07/31 00:10:49;;;;;;;1.58;1.23;;;23.40;60.80;;;;;;5099922;28;20032;-84
2022/07/31 00:13:15;;;;;;;2.03;1.40;;;23.30;60.80;;;;;;5100610;28;20313;-84
2022/07/31 00:15:41;;;;;;;2.80;1.27;;;23.30;60.00;;;;;;5082936;28;20520;-84
2022/07/31 00:18:07;;;;;;;1.90;1.15;;;23.10;60.10;;;;;;5099604;28;20031;-84
2022/07/31 00:20:34;;;;;;;2.03;1.40;;;23.00;60.70;;;;;;5099871;28;20061;-84
2022/07/31 00:23:00;;;;;;;2.22;1.40;;;22.90;61.10;;;;;;5117222;28;20016;-82
2022/07/31 00:25:26;;;;;;;2.67;1.38;;;22.90;61.30;;;;;;5098529;28;20031;-82
2022/07/31 00:27:52;;;;;;;3.83;1.17;;;22.90;61.10;;;;;;5097384;28;20109;-82
2022/07/31 00:30:17;;;;;;;4.38;1.77;;;22.90;61.40;;;;;;5096869;28;20031;-82
2022/07/31 00:32:44;;;;;;;1.30;1.20;;;22.80;61.40;;;;;;5096964;28;20024;-81
2022/07/31 00:35:12;;;;;;;3.10;1.02;;;22.80;61.40;;;;;;5093895;28;20031;-85
2022/07/31 00:37:39;;;;;;;3.28;1.52;;;22.70;61.40;;;;;;5099606;28;20044;-84
2022/07/31 00:40:06;;;;;;;2.63;1.40;;;22.70;61.40;;;;;;5117240;28;20377;-82
2022/07/31 00:42:31;;;;;;;2.53;1.30;;;22.60;61.50;;;;;;5118154;28;20468;-83
2022/07/31 00:44:57;;;;;;;2.75;1.13;;;22.60;61.50;;;;;;5117074;28;20099;-81
2022/07/31 00:47:23;;;;;;;2.80;1.58;;;22.60;61.50;;;;;;5112376;28;20048;-82
2022/07/31 00:49:49;;;;;;;4.38;1.50;;;22.50;61.50;;;;;;5079315;28;20114;-82
2022/07/31 00:52:14;;;;;;;1.88;1.38;;;22.40;61.60;;;;;;5078633;28;20051;-82
2022/07/31 00:54:40;;;;;;;2.00;1.38;;;22.30;62.10;;;;;;5090277;28;20475;-82
2022/07/31 00:57:06;;;;;;;3.20;1.42;;;22.30;61.80;;;;;;5100528;28;20480;-82
2022/07/31 00:59:32;;;;;;;2.90;1.27;;;22.30;61.90;;;;;;5115387;28;20457;-82
2022/07/31 01:01:58;;;;;;;1.60;1.30;;;22.20;62.20;;;;;;5116871;28;20035;-81
2022/07/31 01:04:25;;;;;;;2.17;1.55;;;22.20;62.60;;;;;;5099410;28;20042;-82
2022/07/31 01:06:54;;;;;;;3.10;1.35;;;22.10;63.60;;;;;;5116974;28;20063;-81
2022/07/31 01:09:20;;;;;;;2.28;1.30;;;21.90;64.60;;;;;;5116595;28;20368;-82
2022/07/31 01:12:03;;;;;;;2.65;1.58;;;21.90;64.90;;;;;;5082684;28;20024;-82
2022/07/31 01:14:34;;;;;;;2.38;1.30;;;21.80;65.30;;;;;;5098483;28;20028;-82
2022/07/31 01:17:01;;;;;;;2.25;1.50;;;21.70;65.20;;;;;;5085584;28;20539;-82
2022/07/31 01:19:47;;;;;;;2.63;1.70;;;21.60;65.60;;;;;;5098925;28;20500;-82
2022/07/31 01:22:46;;;;;;;3.40;1.55;;;21.50;66.20;;;;;;5116936;28;20080;-82
2022/07/31 01:25:44;;;;;;;1.88;1.40;;;21.50;66.60;;;;;;5098569;28;20027;-82
2022/07/31 01:28:47;;;;;;;2.60;1.52;;;21.40;66.80;;;;;;5041424;28;20041;-81
2022/07/31 01:31:18;;;;;;;1.90;1.23;;;21.20;67.90;;;;;;5095918;28;20035;-83
2022/07/31 01:34:11;;;;;;;3.78;1.70;;;21.20;67.80;;;;;;5078645;28;20021;-85
2022/07/31 01:36:41;;;;;;;2.22;1.30;;;21.20;68.00;;;;;;5077628;28;20056;-84
2022/07/31 01:39:07;;;;;;;3.25;1.70;;;21.20;68.10;;;;;;5077911;28;20044;-85
2022/07/31 01:41:41;;;;;;;1.73;1.17;;;21.20;68.00;;;;;;5078403;28;20114;-84
2022/07/31 01:44:09;;;;;;;2.38;1.33;;;21.20;68.10;;;;;;5095703;28;20035;-84
2022/07/31 01:46:36;;;;;;;2.35;1.30;;;21.20;68.10;;;;;;5077851;28;20031;-84
2022/07/31 01:49:02;;;;;;;2.97;1.27;;;21.10;68.30;;;;;;5114429;28;20043;-84
2022/07/31 01:51:30;;;;;;;2.60;1.55;;;21.10;68.40;;;;;;5098025;28;20119;-84
2022/07/31 01:53:59;;;;;;;3.15;1.40;;;21.00;68.50;;;;;;5097883;28;20019;-84
2022/07/31 01:56:26;;;;;;;1.70;1.45;;;21.00;68.90;;;;;;5116270;28;20030;-84
2022/07/31 01:58:53;;;;;;;2.78;1.50;;;20.80;69.40;;;;;;5084785;28;20032;-84
2022/07/31 02:01:20;;;;;;;2.55;1.52;;;20.80;69.80;;;;;;5094291;28;20026;-84
2022/07/31 02:03:47;;;;;;;3.67;1.50;;;20.80;69.90;;;;;;5111981;28;20024;-85
2022/07/31 02:06:17;;;;;;;2.17;1.50;;;20.80;70.10;;;;;;5084893;28;20027;-84
2022/07/31 02:08:49;;;;;;;2.63;1.77;;;20.80;70.20;;;;;;5097429;28;20039;-84
2022/07/31 02:11:18;;;;;;;1.58;1.30;;;20.80;70.20;;;;;;5097241;28;20051;-84
2022/07/31 02:13:46;;;;;;;3.33;1.50;;;20.80;70.30;;;;;;5095205;28;20047;-84
2022/07/31 02:16:14;;;;;;;3.65;1.70;;;20.70;70.60;;;;;;5102179;28;20159;-84
2022/07/31 02:18:40;;;;;;;1.60;1.45;;;20.70;70.90;;;;;;5097702;28;20039;-84
2022/07/31 02:21:06;;;;;;;1.40;1.30;;;20.60;71.70;;;;;;5097256;28;20034;-84
2022/07/31 02:23:32;;;;;;;1.67;1.23;;;20.50;71.50;;;;;;5115866;28;20016;-83
2022/07/31 02:26:00;;;;;;;2.58;1.67;;;20.50;71.70;;;;;;5097126;28;20634;-82
2022/07/31 02:28:28;;;;;;;2.25;1.38;;;20.60;71.60;;;;;;5097509;28;20066;-83
2022/07/31 02:30:54;;;;;;;2.35;1.52;;;20.50;71.80;;;;;;5115100;28;20028;-82
2022/07/31 02:33:23;;;;;;;2.38;1.48;;;20.50;72.00;;;;;;5114856;28;20099;-83
2022/07/31 02:35:53;;;;;;;2.63;1.75;;;20.50;72.00;;;;;;5098988;28;20028;-83
2022/07/31 02:38:21;;;;;;;4.65;1.52;;;20.50;72.20;;;;;;5115068;28;20035;-83
2022/07/31 02:40:48;;;;;;;1.65;1.23;;;20.40;72.40;;;;;;5096981;28;20123;-84
2022/07/31 02:43:14;;;;;;;4.80;1.58;;;20.40;72.70;;;;;;5096933;28;20032;-83
2022/07/31 02:45:42;;;;;;;1.60;1.50;;;20.40;72.80;;;;;;5115283;28;20024;-83
2022/07/31 02:48:08;;;;;;;2.97;1.25;;;20.40;72.90;;;;;;5096015;28;20027;-83
2022/07/31 02:50:34;;;;;;;1.45;1.27;;;20.40;73.10;;;;;;5085736;28;20074;-83
2022/07/31 02:53:00;;;;;;;1.95;1.50;;;20.30;73.30;;;;;;5107670;28;20015;-83
2022/07/31 02:55:26;;;;;;;2.38;1.73;;;20.30;73.70;;;;;;5097019;28;20511;-84
2022/07/31 02:57:52;;;;;;;2.63;1.50;;;20.30;73.80;;;;;;5091406;28;20032;-81
2022/07/31 03:00:22;;;;;;;1.80;1.38;;;20.30;74.00;;;;;;5094076;28;20161;-84
2022/07/31 03:02:51;;;;;;;4.68;1.60;;;20.30;74.30;;;;;;5094761;28;20031;-83
2022/07/31 03:05:17;;;;;;;3.03;1.40;;;20.20;74.30;;;;;;5092919;28;20031;-83
2022/07/31 03:07:44;;;;;;;3.33;1.40;;;20.30;74.30;;;;;;5096729;28;20046;-83
2022/07/31 03:10:10;;;;;;;4.55;1.45;;;20.30;74.40;;;;;;5114085;28;20032;-83
2022/07/31 03:12:48;;;;;;;2.58;1.60;;;20.30;74.40;;;;;;5114618;28;20024;-83
2022/07/31 03:15:17;;;;;;;1.60;1.40;;;20.20;74.70;;;;;;5113662;28;20011;-83
2022/07/31 03:17:44;;;;;;;4.65;1.70;;;20.10;75.10;;;;;;5096544;28;20039;-84
2022/07/31 03:20:11;;;;;;;2.22;1.30;;;20.10;75.40;;;;;;5113510;28;20073;-84
2022/07/31 03:22:38;;;;;;;2.40;1.50;;;20.10;75.40;;;;;;5115199;28;20066;-84
2022/07/31 03:25:05;;;;;;;2.13;1.60;;;20.10;75.50;;;;;;5114483;28;20037;-84
2022/07/31 03:27:31;;;;;;;2.03;1.45;;;20.10;75.60;;;;;;5096337;28;20096;-84
2022/07/31 03:29:57;;;;;;;4.43;1.80;;;20.10;75.80;;;;;;5096377;28;20464;-82
2022/07/31 03:32:22;;;;;;;3.50;1.65;;;20.10;75.80;;;;;;5105838;28;20024;-83
2022/07/31 03:34:48;;;;;;;4.47;2.08;;;20.10;75.60;;;;;;5106748;28;20418;-84
2022/07/31 03:37:13;;;;;;;2.67;1.70;;;20.10;75.70;;;;;;5078804;28;20036;-84
2022/07/31 03:39:40;;;;;;;5.30;1.70;;;20.10;75.90;;;;;;5092361;28;20028;-84
2022/07/31 03:42:09;;;;;;;1.65;1.42;;;20.20;75.80;;;;;;5094682;28;20083;-84
2022/07/31 03:44:35;;;;;;;1.95;1.55;;;20.10;75.90;;;;;;5086407;28;20387;-84
2022/07/31 03:47:02;;;;;;;2.05;1.80;;;20.20;76.10;;;;;;5100569;28;20032;-83
2022/07/31 03:49:29;;;;;;;5.70;1.73;;;20.20;76.10;;;;;;5094020;28;20034;-83
2022/07/31 03:51:55;;;;;;;2.90;1.50;;;20.20;76.10;;;;;;5080034;28;20034;-80
2022/07/31 03:54:20;;;;;;;2.30;1.67;;;20.20;76.10;;;;;;5086695;28;20028;-83
2022/07/31 03:56:49;;;;;;;3.30;1.50;;;20.20;76.20;;;;;;5087722;28;20373;-83
2022/07/31 03:59:16;;;;;;;2.70;1.80;;;20.20;76.30;;;;;;5113098;28;20030;-83
2022/07/31 04:01:43;;;;;;;1.63;1.23;;;20.20;76.50;;;;;;5096991;28;20095;-83
2022/07/31 04:04:10;;;;;;;3.75;1.45;;;20.30;76.60;;;;;;5113866;28;20080;-83
2022/07/31 04:06:35;;;;;;;3.83;1.70;;;20.30;76.70;;;;;;5114096;28;20028;-82
2022/07/31 04:09:01;;;;;;;5.80;1.73;;;20.30;76.80;;;;;;5099052;28;20036;-83
2022/07/31 04:11:27;;;;;;;2.05;1.40;;;20.30;76.90;;;;;;5110344;28;20035;-82
2022/07/31 04:13:53;;;;;;;4.85;1.48;;;20.30;76.90;;;;;;5098443;28;20107;-81
2022/07/31 04:16:19;;;;;;;3.22;1.45;;;20.30;76.90;;;;;;5104460;28;20056;-81
2022/07/31 04:18:45;;;;;;;1.92;1.48;;;20.30;76.80;;;;;;5109340;28;20036;-81
2022/07/31 04:21:10;;;;;;;2.08;1.35;;;20.30;76.70;;;;;;5096910;28;20024;-81
2022/07/31 04:23:36;;;;;;;4.65;1.42;;;20.40;76.70;;;;;;5112788;28;20027;-82
2022/07/31 04:26:02;;;;;;;3.33;1.50;;;20.40;77.00;;;;;;5113480;28;20052;-81
2022/07/31 04:28:27;;;;;;;2.97;1.30;;;20.40;76.50;;;;;;5104348;28;20408;-82
2022/07/31 04:30:53;;;;;;;3.63;1.27;;;20.50;76.30;;;;;;5094156;28;20024;-81
2022/07/31 04:33:19;;;;;;;3.95;1.30;;;20.50;76.20;;;;;;5095229;28;20049;-81
2022/07/31 04:35:44;;;;;;;2.35;1.30;;;20.60;76.10;;;;;;5078911;28;20082;-82
2022/07/31 04:38:11;;;;;;;2.42;1.55;;;20.60;75.90;;;;;;5085864;28;20433;-82
2022/07/31 04:40:37;;;;;;;1.95;1.30;;;20.70;75.70;;;;;;5093852;28;20035;-81
2022/07/31 04:43:02;;;;;;;1.85;1.23;;;20.70;75.50;;;;;;5105134;28;20028;-82
2022/07/31 04:45:28;;;;;;;2.22;1.20;;;20.70;75.40;;;;;;5080477;28;20028;-83
2022/07/31 04:47:54;;;;;;;1.65;1.10;;;20.70;75.40;;;;;;5088412;28;20032;-80
2022/07/31 04:50:19;;;;;;;2.72;1.40;;;20.80;75.40;;;;;;5117500;28;20024;-82
2022/07/31 04:52:45;;;;;;;2.40;1.15;;;20.80;75.40;;;;;;5097867;28;20027;-83
2022/07/31 04:55:11;;;;;;;3.20;1.27;;;20.90;75.20;;;;;;5116843;28;20115;-83
2022/07/31 04:57:36;;;;;;;2.45;1.27;;;20.90;75.10;;;;;;5100939;28;20124;-82
2022/07/31 05:00:04;;;;;;;1.23;1.13;;;21.00;74.90;;;;;;5094751;28;20024;-82
2022/07/31 05:02:30;;;;;;;4.30;1.35;;;21.00;74.50;;;;;;5088692;28;20525;-83
2022/07/31 05:04:56;;;;;;;2.50;1.08;;;21.10;74.30;;;;;;5098111;28;20027;-82
2022/07/31 05:07:22;;;;;;;1.05;0.90;;;21.10;74.10;;;;;;5102596;28;20032;-83
2022/07/31 05:09:48;;;;;;;1.30;0.90;;;21.10;73.90;;;;;;5082501;28;20054;-83
2022/07/31 05:12:13;;;;;;;2.15;1.40;;;21.20;73.80;;;;;;5116133;28;20024;-81
2022/07/31 05:14:39;;;;;;;7.72;3.17;;;21.20;73.70;;;;;;5116766;28;20024;-82
2022/07/31 05:17:04;;;;;;;7.28;2.63;;;21.20;73.30;;;;;;5115817;28;20109;-81
2022/07/31 05:19:30;;;;;;;8.35;3.90;;;21.30;73.10;;;;;;5098675;28;20027;-81
2022/07/31 05:21:56;;;;;;;7.57;3.85;;;21.30;72.80;;;;;;5079417;28;20108;-79
2022/07/31 05:24:22;;;;;;;13.82;6.90;;;21.30;72.70;;;;;;5105325;28;20120;-81
2022/07/31 05:26:48;;;;;;;9.73;4.82;;;21.40;72.50;;;;;;5086194;28;20031;-81
2022/07/31 05:29:14;;;;;;;6.10;3.60;;;21.40;72.50;;;;;;5080031;28;20453;-82
2022/07/31 05:31:39;;;;;;;7.20;2.85;;;21.40;72.60;;;;;;5113178;28;20055;-82
2022/07/31 05:34:05;;;;;;;4.60;2.45;;;21.40;72.60;;;;;;5097583;28;20115;-81
2022/07/31 05:36:30;;;;;;;5.32;3.13;;;21.40;72.70;;;;;;5098367;28;20494;-81
2022/07/31 05:38:56;;;;;;;6.70;3.08;;;21.40;72.80;;;;;;5097734;28;20058;-79
2022/07/31 05:41:22;;;;;;;3.45;2.00;;;21.50;72.80;;;;;;5085767;28;20039;-81
2022/07/31 05:43:47;;;;;;;2.92;2.15;;;21.40;72.90;;;;;;5095029;28;20032;-81
2022/07/31 05:46:15;;;;;;;5.20;3.03;;;21.40;73.20;;;;;;5102487;28;20027;-81
2022/07/31 05:48:41;;;;;;;6.38;3.55;;;21.40;73.30;;;;;;5106944;28;20533;-81
2022/07/31 05:51:12;;;;;;;4.95;3.20;;;21.40;73.50;;;;;;5080042;28;20101;-81
2022/07/31 05:53:38;;;;;;;8.65;4.38;;;21.50;73.60;;;;;;5111601;28;20040;-82
2022/07/31 05:56:05;;;;;;;6.60;3.45;;;21.40;74.00;;;;;;5114942;28;20083;-82
2022/07/31 05:58:32;;;;;;;7.13;4.22;;;21.40;74.40;;;;;;5115304;28;20028;-85
2022/07/31 06:00:58;;;;;;;11.40;5.30;;;21.40;74.70;;;;;;5086164;28;20031;-83
2022/07/31 06:03:28;;;;;;;5.40;3.22;;;21.40;74.80;;;;;;5095313;28;20051;-85
2022/07/31 06:05:54;;;;;;;7.97;3.97;;;21.50;75.00;;;;;;5112545;28;20031;-82
2022/07/31 06:08:20;;;;;;;10.02;5.00;;;21.40;75.00;;;;;;5085435;28;20027;-85
2022/07/31 06:10:45;;;;;;;8.48;4.63;;;21.50;75.10;;;;;;5115572;28;20088;-84
2022/07/31 06:13:12;;;;;;;9.32;4.72;;;21.50;75.00;;;;;;5114904;28;20523;-85
2022/07/31 06:15:38;;;;;;;8.55;4.25;;;21.50;75.10;;;;;;5112138;28;20468;-85
2022/07/31 06:18:04;;;;;;;3.42;2.35;;;21.50;75.00;;;;;;5114094;28;20035;-85
2022/07/31 06:20:30;;;;;;;4.25;2.47;;;21.50;75.20;;;;;;5111825;28;20068;-85
2022/07/31 06:22:55;;;;;;;5.13;2.33;;;21.60;75.20;;;;;;5101425;28;20020;-82
2022/07/31 06:25:21;;;;;;;3.53;2.00;;;21.60;75.30;;;;;;5094092;28;20024;-85
2022/07/31 06:27:47;;;;;;;4.32;1.80;;;21.60;75.30;;;;;;5115430;28;20043;-86
2022/07/31 06:30:13;;;;;;;4.75;2.78;;;21.60;75.40;;;;;;5096324;28;20512;-85
2022/07/31 06:32:38;;;;;;;4.72;2.50;;;21.60;75.70;;;;;;5115124;28;20372;-85
2022/07/31 06:35:05;;;;;;;6.38;2.47;;;21.60;75.90;;;;;;5114678;28;20019;-84
2022/07/31 06:37:31;;;;;;;4.57;2.10;;;21.50;76.20;;;;;;5113408;28;20027;-84
2022/07/31 06:39:56;;;;;;;6.55;2.10;;;21.50;76.50;;;;;;5081819;28;20112;-82
2022/07/31 06:42:23;;;;;;;3.75;2.03;;;21.50;76.50;;;;;;5114602;28;20024;-84
2022/07/31 06:44:49;;;;;;;5.30;2.60;;;21.60;76.70;;;;;;5115045;28;20099;-85
2022/07/31 06:47:16;;;;;;;10.35;2.80;;;21.60;76.90;;;;;;5102812;28;20026;-86
2022/07/31 06:49:41;;;;;;;2.78;1.77;;;21.60;77.00;;;;;;5077374;28;20028;-83
2022/07/31 06:52:07;;;;;;;11.75;3.60;;;21.50;77.00;;;;;;5079708;28;20020;-85
2022/07/31 06:54:33;;;;;;;10.15;3.33;;;21.60;77.30;;;;;;5095814;28;20024;-84
2022/07/31 06:56:58;;;;;;;6.03;2.35;;;21.60;77.50;;;;;;5096100;28;20031;-84
2022/07/31 06:59:24;;;;;;;2.67;1.73;;;21.60;78.00;;;;;;5096484;28;20034;-86
2022/07/31 07:01:50;;;;;;;5.85;2.25;;;21.50;78.10;;;;;;5081561;28;20020;-85
2022/07/31 07:04:15;;;;;;;5.15;2.20;;;21.60;78.30;;;;;;5083564;28;20076;-82
2022/07/31 07:06:41;;;;;;;6.00;2.38;;;21.60;78.40;;;;;;5093004;28;20024;-82
2022/07/31 07:09:07;;;;;;;5.28;1.80;;;21.70;78.60;;;;;;5095948;28;20047;-82
2022/07/31 07:11:32;;;;;;;4.25;1.60;;;21.70;78.40;;;;;;5096260;28;20464;-82
2022/07/31 07:13:58;;;;;;;4.10;1.88;;;21.80;78.60;;;;;;5110911;28;20027;-82
2022/07/31 07:16:24;;;;;;;2.60;1.77;;;21.80;78.50;;;;;;5075547;28;20059;-84
2022/07/31 07:18:49;;;;;;;4.47;2.08;;;21.90;78.60;;;;;;5093349;28;20096;-84
2022/07/31 07:21:15;;;;;;;2.92;1.95;;;21.90;78.50;;;;;;5079190;28;20028;-83
2022/07/31 07:23:41;;;;;;;3.22;2.10;;;21.90;78.20;;;;;;5110635;28;20047;-82
2022/07/31 07:26:07;;;;;;;4.28;1.98;;;22.00;78.20;;;;;;5075833;28;20028;-83
2022/07/31 07:28:33;;;;;;;4.95;2.00;;;22.00;78.10;;;;;;5093817;28;20457;-80
2022/07/31 07:30:59;;;;;;;4.32;2.20;;;22.10;78.00;;;;;;5089081;28;20024;-80
2022/07/31 07:33:24;;;;;;;3.75;1.77;;;22.20;77.90;;;;;;5109558;28;20535;-81
2022/07/31 07:35:50;;;;;;;2.25;1.85;;;22.20;78.00;;;;;;5091541;28;20369;-82
2022/07/31 07:38:16;;;;;;;5.03;1.70;;;22.30;77.70;;;;;;5078992;28;20024;-82
2022/07/31 07:40:42;;;;;;;3.08;1.50;;;22.30;77.70;;;;;;5092418;28;20035;-83
2022/07/31 07:43:08;;;;;;;2.42;1.40;;;22.40;77.70;;;;;;5083199;28;20021;-82
2022/07/31 07:45:34;;;;;;;3.45;2.08;;;22.40;77.50;;;;;;5092262;28;20024;-84
2022/07/31 07:47:59;;;;;;;5.43;3.50;;;22.50;77.70;;;;;;5105197;28;20035;-84
2022/07/31 07:50:25;;;;;;;2.95;1.80;;;22.50;77.40;;;;;;5078478;28;20021;-84
2022/07/31 07:52:51;;;;;;;8.32;1.52;;;22.70;77.30;;;;;;5078921;28;20487;-85
2022/07/31 07:55:17;;;;;;;2.42;1.52;;;22.70;76.90;;;;;;5077772;28;20119;-83
2022/07/31 07:57:44;;;;;;;3.30;1.42;;;22.80;76.60;;;;;;5099675;28;20034;-84
2022/07/31 08:00:11;;;;;;;3.75;1.63;;;22.90;76.20;;;;;;5079711;28;20182;-83
2022/07/31 08:02:37;;;;;;;3.03;1.60;;;23.10;75.50;;;;;;5081214;28;20021;-85
2022/07/31 08:05:04;;;;;;;5.85;2.40;;;23.10;74.90;;;;;;5096154;28;20024;-84
2022/07/31 08:07:31;;;;;;;4.43;1.33;;;23.20;74.40;;;;;;5083623;28;20396;-84
2022/07/31 08:09:58;;;;;;;2.58;1.70;;;23.30;74.70;;;;;;5100926;28;20476;-85
2022/07/31 08:12:25;;;;;;;1.88;1.35;;;23.40;74.10;;;;;;5110893;28;20024;-87
2022/07/31 08:14:51;;;;;;;4.47;1.40;;;23.40;73.50;;;;;;5109544;28;20169;-86
2022/07/31 08:17:17;;;;;;;2.22;1.38;;;23.50;73.20;;;;;;5094554;28;20060;-86
2022/07/31 08:19:42;;;;;;;1.80;1.30;;;23.60;72.30;;;;;;5102677;28;20031;-86
2022/07/31 08:22:08;;;;;;;1.83;1.30;;;23.80;71.70;;;;;;5099577;28;20024;-83
2022/07/31 08:24:34;;;;;;;1.80;1.40;;;23.80;71.50;;;;;;5081892;28;20025;-82
2022/07/31 08:29:44;;;;;;;1.60;1.25;;;24.10;70.60;;;;;;5110564;28;20157;-84
2022/07/31 08:32:12;;;;;;;2.25;1.23;;;24.30;70.00;;;;;;5089259;28;20057;-83
2022/07/31 08:34:38;;;;;;;5.70;1.48;;;24.30;69.50;;;;;;5113394;28;20410;-84
2022/07/31 08:37:05;;;;;;;3.13;1.77;;;24.40;69.40;;;;;;5085715;28;20024;-84
2022/07/31 08:39:34;;;;;;;1.58;1.20;;;24.60;69.10;;;;;;5113437;28;20064;-84
2022/07/31 08:42:08;;;;;;;3.72;1.40;;;24.70;68.10;;;;;;5112606;28;20032;-83
2022/07/31 08:44:38;;;;;;;3.55;1.38;;;24.80;67.20;;;;;;5081692;28;20023;-85
2022/07/31 08:47:14;;;;;;;5.20;1.20;;;25.00;67.30;;;;;;5112441;28;20020;-85
2022/07/31 08:49:42;;;;;;;3.38;1.20;;;25.10;66.90;;;;;;5117849;28;20028;-84
2022/07/31 08:52:10;;;;;;;4.88;1.40;;;25.20;66.40;;;;;;5082483;28;20020;-81
2022/07/31 08:54:36;;;;;;;2.03;1.50;;;25.20;65.70;;;;;;5109102;28;20024;-82
2022/07/31 08:57:03;;;;;;;2.20;1.27;;;25.20;66.10;;;;;;5092240;28;20077;-83
2022/07/31 08:59:29;;;;;;;1.23;1.00;;;25.20;66.10;;;;;;5085303;28;20047;-86
2022/07/31 09:01:58;;;;;;;2.65;1.08;;;25.20;65.40;;;;;;5101804;28;20095;-84
2022/07/31 09:04:24;;;;;;;4.03;1.30;;;25.30;65.40;;;;;;5082742;28;20012;-86
2022/07/31 09:06:50;;;;;;;4.75;1.30;;;25.50;65.30;;;;;;5082146;28;20020;-86
2022/07/31 09:09:19;;;;;;;1.33;1.00;;;25.60;64.10;;;;;;5080807;28;20032;-86
2022/07/31 09:11:49;;;;;;;2.28;1.10;;;25.80;63.10;;;;;;5094792;28;20414;-82
2022/07/31 09:14:33;;;;;;;1.38;0.80;;;25.90;62.00;;;;;;5093891;28;20177;-83
2022/07/31 09:17:00;;;;;;;1.58;0.88;;;26.10;61.30;;;;;;5089494;28;20084;-88
2022/07/31 09:19:42;;;;;;;2.55;1.20;;;26.10;60.40;;;;;;5113661;28;20476;-91
2022/07/31 09:22:26;;;;;;;3.17;0.95;;;26.10;59.50;;;;;;5080774;28;20023;-91
2022/07/31 09:24:52;;;;;;;3.00;1.05;;;26.10;60.00;;;;;;5099406;28;20032;-88
2022/07/31 09:27:18;;;;;;;1.58;0.98;;;26.10;60.70;;;;;;5094441;28;20036;-92
2022/07/31 09:29:47;;;;;;;1.73;1.23;;;26.20;60.80;;;;;;5094419;28;20504;-93
2022/07/31 09:32:20;;;;;;;2.40;1.00;;;26.10;60.70;;;;;;5080030;28;20023;-80
2022/07/31 09:34:47;;;;;;;3.03;1.10;;;26.10;60.20;;;;;;5098370;28;20047;-81
2022/07/31 09:37:16;;;;;;;2.63;1.30;;;26.10;60.50;;;;;;5107347;28;20030;-81
2022/07/31 09:39:51;;;;;;;4.32;2.85;;;26.20;60.50;;;;;;5110087;28;20101;-83
2022/07/31 09:42:18;;;;;;;3.95;1.30;;;26.40;59.70;;;;;;5108402;28;20024;-80
2022/07/31 09:44:45;;;;;;;2.88;1.50;;;26.50;59.00;;;;;;5080141;28;20020;-82
2022/07/31 09:47:27;;;;;;;2.72;1.48;;;26.60;59.30;;;;;;5082824;28;20484;-81
2022/07/31 09:49:54;;;;;;;5.32;2.30;;;26.70;58.00;;;;;;5080435;28;20023;-84
2022/07/31 09:52:21;;;;;;;7.78;3.55;;;26.80;58.50;;;;;;5085965;28;20063;-84
2022/07/31 09:54:47;;;;;;;3.67;1.77;;;26.90;58.20;;;;;;5094145;28;20050;-84
2022/07/31 09:57:14;;;;;;;3.90;1.52;;;26.80;58.60;;;;;;5097062;28;20027;-85
2022/07/31 09:59:40;;;;;;;2.65;0.98;;;26.80;58.90;;;;;;5115601;28;20077;-84
2022/07/31 10:02:07;;;;;;;1.15;0.98;;;26.70;59.30;;;;;;5115116;28;20027;-86
2022/07/31 10:04:40;;;;;;;2.70;1.67;;;26.70;60.00;;;;;;5094175;28;20022;-84
2022/07/31 10:07:05;;;;;;;2.20;1.45;;;26.60;60.30;;;;;;5093660;28;20027;-86
2022/07/31 10:09:32;;;;;;;2.92;1.60;;;26.60;60.20;;;;;;5109862;28;20117;-87
2022/07/31 10:12:00;;;;;;;2.42;1.15;;;26.60;60.30;;;;;;5110770;28;20052;-87
2022/07/31 10:14:40;;;;;;;2.08;1.30;;;26.60;60.60;;;;;;5097676;28;20012;-82
2022/07/31 10:17:06;;;;;;;2.78;1.20;;;26.70;60.30;;;;;;5078890;28;20048;-85
2022/07/31 10:19:36;;;;;;;2.55;1.42;;;26.80;60.10;;;;;;5115379;28;20032;-84
2022/07/31 10:22:04;;;;;;;2.43;1.17;;;26.90;59.70;;;;;;5090196;28;20028;-81
2022/07/31 10:24:34;;;;;;;3.58;1.10;;;27.10;60.00;;;;;;5104405;28;20034;-80
2022/07/31 10:27:00;;;;;;;2.15;1.30;;;27.30;60.10;;;;;;5092656;28;20024;-81
2022/07/31 10:29:26;;;;;;;2.80;1.20;;;27.40;59.30;;;;;;5110275;28;20039;-82
2022/07/31 10:31:52;;;;;;;1.45;0.95;;;27.50;59.10;;;;;;5090981;28;20032;-82
2022/07/31 10:34:18;;;;;;;1.52;1.10;;;27.60;58.80;;;;;;5090435;28;20059;-83
2022/07/31 10:36:45;;;;;;;4.18;1.35;;;27.80;59.00;;;;;;5097085;28;20024;-84
2022/07/31 10:39:30;;;;;;;4.65;2.13;;;27.90;58.80;;;;;;5096329;28;20050;-83
2022/07/31 10:42:26;;;;;;;11.52;6.85;;;27.90;57.30;;;;;;5083463;28;20031;-81
2022/07/31 10:45:04;;;;;;;5.95;2.20;;;28.00;57.00;;;;;;5111288;28;20084;-82
2022/07/31 10:47:29;;;;;;;2.58;1.10;;;28.30;56.00;;;;;;5083710;28;20028;-83
2022/07/31 10:49:55;;;;;;;3.50;1.00;;;28.40;56.20;;;;;;5098052;28;20049;-82
2022/07/31 10:52:28;;;;;;;2.55;1.30;;;28.40;56.20;;;;;;5096741;28;20050;-82
2022/07/31 10:54:57;;;;;;;5.53;2.00;;;28.30;56.30;;;;;;5078931;28;20024;-87
2022/07/31 10:57:27;;;;;;;3.88;1.40;;;28.40;56.30;;;;;;5097574;28;20024;-89
2022/07/31 10:59:53;;;;;;;7.85;1.90;;;28.40;56.40;;;;;;5098184;28;20028;-81
2022/07/31 11:02:36;;;;;;;3.45;1.90;;;28.40;56.70;;;;;;5078344;28;20134;-82
2022/07/31 11:05:11;;;;;;;3.83;1.17;;;28.40;56.80;;;;;;5096686;28;20031;-81
2022/07/31 11:07:43;;;;;;;2.10;1.13;;;28.20;56.20;;;;;;5081591;28;20088;-82
2022/07/31 11:10:10;;;;;;;4.25;1.30;;;28.10;56.80;;;;;;5078881;28;20107;-82
2022/07/31 11:12:35;;;;;;;2.53;1.40;;;28.10;56.90;;;;;;5104204;28;20020;-81
2022/07/31 11:15:01;;;;;;;1.75;1.30;;;28.10;57.50;;;;;;5092613;28;20039;-81
2022/07/31 11:17:31;;;;;;;4.18;1.35;;;28.20;57.50;;;;;;5109639;28;20109;-82
2022/07/31 11:19:57;;;;;;;5.43;1.60;;;28.20;57.10;;;;;;5093371;28;20066;-81
2022/07/31 11:22:23;;;;;;;3.40;1.25;;;28.20;57.90;;;;;;5095686;28;20100;-81
2022/07/31 11:24:57;;;;;;;3.25;1.35;;;28.20;57.20;;;;;;5092481;28;20073;-81
2022/07/31 11:27:32;;;;;;;1.38;1.20;;;28.30;57.20;;;;;;5080715;28;20024;-81
2022/07/31 11:30:06;;;;;;;2.80;1.35;;;28.40;57.30;;;;;;5101038;28;20028;-82
2022/07/31 11:32:32;;;;;;;5.75;1.40;;;28.50;56.60;;;;;;5090285;28;20481;-82
2022/07/31 11:34:57;;;;;;;2.05;1.23;;;28.60;56.80;;;;;;5091336;28;20024;-82
2022/07/31 11:37:29;;;;;;;3.75;0.90;;;28.60;56.70;;;;;;5106939;28;20063;-82
2022/07/31 11:39:56;;;;;;;3.63;1.38;;;28.50;56.50;;;;;;5087066;28;20122;-82
2022/07/31 11:42:23;;;;;;;2.83;1.88;;;28.60;56.20;;;;;;5090937;28;20024;-83
2022/07/31 11:44:50;;;;;;;2.90;1.23;;;28.60;56.20;;;;;;5082313;28;20048;-83
2022/07/31 11:47:15;;;;;;;1.88;1.20;;;28.60;56.60;;;;;;5109061;28;20023;-82
2022/07/31 11:49:41;;;;;;;2.10;1.30;;;28.70;56.70;;;;;;5088222;28;20020;-82
2022/07/31 11:52:12;;;;;;;1.98;1.25;;;28.80;57.20;;;;;;5081754;28;20089;-82
2022/07/31 11:54:38;;;;;;;2.67;1.63;;;28.90;56.00;;;;;;5086169;28;20055;-82
2022/07/31 11:57:04;;;;;;;1.52;1.30;;;29.10;55.80;;;;;;5082842;28;20051;-82
2022/07/31 11:59:32;;;;;;;3.22;1.25;;;29.30;55.70;;;;;;5097514;28;20490;-81
2022/07/31 12:02:09;;;;;;;1.90;1.00;;;29.40;54.20;;;;;;5096353;28;20047;-82
2022/07/31 12:04:36;;;;;;;1.92;1.20;;;29.30;54.10;;;;;;5087591;28;20016;-82
2022/07/31 12:07:03;;;;;;;1.40;1.10;;;29.20;54.60;;;;;;5077439;28;20020;-82
2022/07/31 12:09:30;;;;;;;1.98;1.17;;;29.30;54.50;;;;;;5079324;28;20031;-82
2022/07/31 12:11:56;;;;;;;3.15;1.20;;;29.40;54.60;;;;;;5112328;28;20016;-81
2022/07/31 12:14:38;;;;;;;1.63;1.10;;;29.70;54.10;;;;;;5109808;28;20437;-82
2022/07/31 12:17:05;;;;;;;2.88;1.30;;;29.90;53.60;;;;;;5090689;28;20046;-82
2022/07/31 12:19:33;;;;;;;2.47;1.20;;;30.00;53.30;;;;;;5098934;28;20024;-82
2022/07/31 12:21:59;;;;;;;3.72;1.40;;;30.00;53.30;;;;;;5078250;28;20019;-82
2022/07/31 12:24:25;;;;;;;3.22;1.27;;;30.10;53.20;;;;;;5081010;28;20109;-79
2022/07/31 12:26:52;;;;;;;1.45;1.10;;;30.10;53.20;;;;;;5091910;28;20028;-82
2022/07/31 12:29:19;;;;;;;2.17;0.93;;;30.00;53.30;;;;;;5091098;28;20043;-84
2022/07/31 12:31:52;;;;;;;5.93;1.30;;;30.00;53.70;;;;;;5088498;28;20046;-82
2022/07/31 12:34:40;;;;;;;4.05;1.70;;;30.00;54.00;;;;;;5091226;28;20106;-82
2022/07/31 12:37:10;;;;;;;28.00;17.40;;;29.90;53.70;;;;;;5082102;28;20111;-76
2022/07/31 12:39:42;;;;;;;4.65;2.75;;;29.90;53.90;;;;;;5090262;28;20020;-80
2022/07/31 12:42:07;;;;;;;3.75;1.85;;;30.00;52.90;;;;;;5087446;28;20031;-81
2022/07/31 12:44:33;;;;;;;3.83;1.70;;;30.00;53.10;;;;;;5095507;28;20012;-81
2022/07/31 12:46:59;;;;;;;2.05;1.40;;;30.20;53.10;;;;;;5096810;28;20101;-81
2022/07/31 12:49:25;;;;;;;3.58;1.40;;;30.30;52.70;;;;;;5091372;28;20372;-81
2022/07/31 12:51:50;;;;;;;1.95;1.17;;;30.30;52.60;;;;;;5097622;28;20022;-82